Time;durP1;ratioP1;P1;durP2;ratioP2;P2;SDS_P1;SDS_P2;PMS_P1;PMS_P2;Temp;Humidity;BMP_temperature;BMP_pressure;BME280_temperature;BME280_humidity;BME280_pressure;Samples;Min_cycle;Max_cycle;Signal;HPM_P1;HPM_P2
2024/02/26 00:00:03;;;;;;;;;;;;;;;10.63;64.14;100001.47;4829054;29;19916;-79
2024/02/26 00:02:54;;;;;;;;;;;;;;;10.67;64.09;100000.47;4826737;29;19917;-78
2024/02/26 00:05:46;;;;;;;;;;;;;;;10.64;64.53;99990.25;4830675;29;19928;-79
2024/02/26 00:08:38;;;;;;;;;;;;;;;10.62;64.32;99989.00;4828253;29;19917;-79
2024/02/26 00:11:30;;;;;;;;;;;;;;;10.64;64.43;99986.75;4829642;29;20387;-79
2024/02/26 00:14:19;;;;;;;;;;;;;;;10.67;64.42;99973.28;4829958;29;19917;-80
2024/02/26 00:17:09;;;;;;;;;;;;;;;10.72;64.13;99964.09;4841826;29;19920;-80
2024/02/26 00:20:01;;;;;;;;;;;;;;;10.77;63.78;99971.28;4831519;29;19920;-78
2024/02/26 00:22:53;;;;;;;;;;;;;;;10.82;63.29;99962.91;4831599;29;19917;-80
2024/02/26 00:25:42;;;;;;;;;;;;;;;10.87;62.92;99960.00;4844590;29;19920;-79
2024/02/26 00:28:37;;;;;;;;;;;;;;;10.94;62.73;99952.84;4847540;29;19916;-79
2024/02/26 00:31:32;;;;;;;;;;;;;;;10.94;62.79;99947.41;4832290;29;19917;-79
2024/02/26 00:34:24;;;;;;;;;;;;;;;10.96;62.94;99947.09;4830015;29;19916;-80
2024/02/26 00:37:11;;;;;;;;;;;;;;;10.96;62.75;99949.81;4832874;29;20435;-79
2024/02/26 00:40:03;;;;;;;;;;;;;;;10.89;62.83;99950.34;4831255;29;20297;-80
2024/02/26 00:42:55;;;;;;;;;;;;;;;10.92;63.04;99946.94;4834962;29;19917;-79
2024/02/26 00:45:44;;;;;;;;;;;;;;;10.86;62.98;99936.63;4832139;29;19920;-79
2024/02/26 00:48:36;;;;;;;;;;;;;;;10.80;63.02;99943.41;4843848;29;19916;-79
2024/02/26 00:51:28;;;;;;;;;;;;;;;10.90;62.81;99934.81;4846197;29;19916;-80
2024/02/26 00:54:20;;;;;;;;;;;;;;;10.93;62.61;99928.72;4831830;29;19916;-78
2024/02/26 00:57:12;;;;;;;;;;;;;;;10.93;62.91;99926.78;4829741;29;19920;-79
2024/02/26 01:00:04;;;;;;;;;;;;;;;10.95;62.68;99921.81;4833194;29;19917;-79
2024/02/26 01:02:56;;;;;;;;;;;;;;;10.99;63.03;99909.13;4830716;29;19916;-79
2024/02/26 01:05:48;;;;;;;;;;;;;;;10.95;62.05;99908.22;4834261;29;20383;-79
2024/02/26 01:08:40;;;;;;;;;;;;;;;10.89;61.96;99900.59;4831714;29;19916;-79
2024/02/26 01:11:32;;;;;;;;;;;;;;;10.95;62.22;99910.94;4830302;29;20413;-79
2024/02/26 01:14:24;;;;;;;;;;;;;;;10.90;62.19;99892.09;4833552;29;19916;-79
2024/02/26 01:17:16;;;;;;;;;;;;;;;10.91;62.82;99892.91;4835180;29;19917;-80
2024/02/26 01:20:08;;;;;;;;;;;;;;;10.91;61.84;99882.81;4843085;29;19920;-79
2024/02/26 01:23:03;;;;;;;;;;;;;;;10.89;62.46;99881.56;4832659;29;20307;-79
2024/02/26 01:25:55;;;;;;;;;;;;;;;10.83;62.21;99882.91;4843881;29;19921;-80
2024/02/26 01:28:47;;;;;;;;;;;;;;;10.84;62.37;99874.41;4847148;29;19917;-80
2024/02/26 01:31:39;;;;;;;;;;;;;;;10.88;62.34;99878.03;4831563;29;19920;-79
2024/02/26 01:34:28;;;;;;;;;;;;;;;10.83;62.16;99867.38;4834528;29;19921;-78
2024/02/26 01:37:20;;;;;;;;;;;;;;;10.72;62.21;99860.78;4832982;29;19916;-79
2024/02/26 01:40:12;;;;;;;;;;;;;;;10.78;61.70;99862.16;4831199;29;19917;-79
2024/02/26 01:43:01;;;;;;;;;;;;;;;10.70;62.48;99854.91;4828765;29;19916;-79
2024/02/26 01:45:53;;;;;;;;;;;;;;;10.68;62.74;99857.16;4832225;29;20488;-79
2024/02/26 01:48:47;;;;;;;;;;;;;;;10.66;62.93;99856.72;4830017;29;19916;-79
2024/02/26 01:51:36;;;;;;;;;;;;;;;10.62;63.64;99851.13;4831330;29;20302;-79
2024/02/26 01:54:28;;;;;;;;;;;;;;;10.67;63.61;99847.41;4831389;29;19916;-78
2024/02/26 01:57:23;;;;;;;;;;;;;;;10.62;63.83;99839.47;4848040;29;19942;-78
2024/02/26 02:00:16;;;;;;;;;;;;;;;10.75;63.13;99843.00;4846507;29;19916;-79
2024/02/26 02:03:09;;;;;;;;;;;;;;;10.74;63.13;99844.94;4844011;29;20386;-79
2024/02/26 02:06:01;;;;;;;;;;;;;;;10.73;63.08;99840.63;4842098;29;19924;-78
2024/02/26 02:08:56;;;;;;;;;;;;;;;10.62;63.41;99842.19;4845104;29;19916;-79
2024/02/26 02:11:48;;;;;;;;;;;;;;;10.53;63.73;99845.00;4829827;29;19916;-79
2024/02/26 02:14:40;;;;;;;;;;;;;;;10.61;63.90;99837.91;4832490;29;19916;-80
2024/02/26 02:17:33;;;;;;;;;;;;;;;10.60;63.28;99831.66;4844158;29;19917;-79
2024/02/26 02:20:27;;;;;;;;;;;;;;;10.62;63.54;99825.88;4842350;29;19916;-79
2024/02/26 02:23:19;;;;;;;;;;;;;;;10.62;63.14;99823.16;4832081;29;19920;-79
2024/02/26 02:26:11;;;;;;;;;;;;;;;10.63;63.26;99814.66;4830080;29;19920;-79
2024/02/26 02:29:02;;;;;;;;;;;;;;;10.63;63.20;99809.22;4846422;29;19916;-80
2024/02/26 02:31:54;;;;;;;;;;;;;;;10.66;62.76;99808.56;4830096;29;19924;-80
2024/02/26 02:34:46;;;;;;;;;;;;;;;10.72;62.06;99807.19;4829070;29;20310;-78
2024/02/26 02:37:38;;;;;;;;;;;;;;;10.50;62.80;99801.41;4845570;29;19916;-80
2024/02/26 02:40:30;;;;;;;;;;;;;;;10.52;63.41;99799.13;4830466;29;19916;-78
2024/02/26 02:43:21;;;;;;;;;;;;;;;10.45;63.58;99801.59;4828537;29;20502;-78
2024/02/26 02:46:16;;;;;;;;;;;;;;;10.49;63.44;99794.38;4830596;29;19925;-79
2024/02/26 02:49:09;;;;;;;;;;;;;;;10.53;62.75;99789.84;4842867;29;19916;-79
2024/02/26 02:52:01;;;;;;;;;;;;;;;10.50;63.38;99791.31;4829354;29;20302;-79
2024/02/26 02:54:53;;;;;;;;;;;;;;;10.57;63.28;99793.47;4830711;29;19916;-79
2024/02/26 02:57:45;;;;;;;;;;;;;;;10.53;62.81;99789.84;4828543;29;19920;-79
2024/02/26 03:00:37;;;;;;;;;;;;;;;10.49;62.70;99787.00;4832809;29;20291;-79
2024/02/26 03:03:29;;;;;;;;;;;;;;;10.47;62.48;99772.94;4843289;29;19916;-79
2024/02/26 03:06:21;;;;;;;;;;;;;;;10.47;62.38;99781.09;4840874;29;19924;-78
2024/02/26 03:09:12;;;;;;;;;;;;;;;10.50;62.53;99782.38;4830637;29;19916;-79
2024/02/26 03:12:04;;;;;;;;;;;;;;;10.45;61.78;99777.16;4842330;29;19927;-80
2024/02/26 03:14:54;;;;;;;;;;;;;;;10.59;61.79;99772.97;4831852;29;19916;-79
2024/02/26 03:17:45;;;;;;;;;;;;;;;10.53;62.00;99781.69;4830068;29;19924;-79
2024/02/26 03:20:37;;;;;;;;;;;;;;;10.44;61.98;99779.06;4828439;29;19916;-79
2024/02/26 03:23:29;;;;;;;;;;;;;;;10.41;62.23;99773.53;4831475;29;19916;-79
2024/02/26 03:26:19;;;;;;;;;;;;;;;10.36;62.47;99774.53;4843216;29;19924;-78
2024/02/26 03:29:15;;;;;;;;;;;;;;;10.41;62.16;99776.25;4840269;29;19917;-79
2024/02/26 03:32:07;;;;;;;;;;;;;;;10.38;62.20;99776.91;4828570;29;19916;-78
2024/02/26 03:34:59;;;;;;;;;;;;;;;10.35;62.38;99770.22;4842335;29;19916;-79
2024/02/26 03:37:51;;;;;;;;;;;;;;;10.25;62.30;99766.03;4846491;29;19920;-79
2024/02/26 03:40:43;;;;;;;;;;;;;;;10.21;61.99;99767.78;4843305;29;19916;-79
2024/02/26 03:43:35;;;;;;;;;;;;;;;10.27;62.40;99769.19;4846674;29;19916;-79
2024/02/26 03:46:27;;;;;;;;;;;;;;;10.24;62.27;99760.91;4844607;29;20307;-79
2024/02/26 03:49:22;;;;;;;;;;;;;;;10.25;62.17;99762.50;4829480;29;19920;-79
2024/02/26 03:52:14;;;;;;;;;;;;;;;10.33;62.02;99760.81;4827027;29;20723;-78
2024/02/26 03:55:05;;;;;;;;;;;;;;;10.27;61.71;99765.66;4830428;29;19917;-78
2024/02/26 03:57:55;;;;;;;;;;;;;;;10.28;61.81;99759.09;4844225;29;19920;-79
2024/02/26 04:00:47;;;;;;;;;;;;;;;10.28;62.04;99759.91;4835325;29;19920;-78
2024/02/26 04:03:38;;;;;;;;;;;;;;;10.25;61.81;99767.94;4833268;29;19916;-79
2024/02/26 04:06:30;;;;;;;;;;;;;;;10.28;62.06;99754.47;4844841;29;19920;-79
2024/02/26 04:09:22;;;;;;;;;;;;;;;10.28;61.63;99748.25;4834487;29;19920;-80
2024/02/26 04:12:14;;;;;;;;;;;;;;;10.32;60.90;99745.63;4831306;29;20287;-79
2024/02/26 04:15:06;;;;;;;;;;;;;;;10.32;61.27;99742.91;4830147;29;19916;-78
2024/02/26 04:17:59;;;;;;;;;;;;;;;10.31;61.63;99746.78;4847080;29;19917;-79
2024/02/26 04:20:51;;;;;;;;;;;;;;;10.24;61.12;99756.28;4840763;29;19916;-79
2024/02/26 04:23:43;;;;;;;;;;;;;;;10.07;61.76;99759.13;4829312;29;19921;-79
2024/02/26 04:26:35;;;;;;;;;;;;;;;9.99;61.98;99762.72;4828108;29;19925;-78
2024/02/26 04:29:27;;;;;;;;;;;;;;;10.01;62.13;99748.81;4812746;29;19916;-78
2024/02/26 04:32:19;;;;;;;;;;;;;;;10.01;62.14;99746.09;4826339;29;20307;-78
2024/02/26 04:35:11;;;;;;;;;;;;;;;10.02;62.48;99751.19;4827641;29;19917;-79
2024/02/26 04:38:08;;;;;;;;;;;;;;;9.96;62.65;99757.94;4811946;29;19917;-78
2024/02/26 04:40:55;;;;;;;;;;;;;;;9.82;63.24;99762.88;4828435;29;19917;-77
2024/02/26 04:43:46;;;;;;;;;;;;;;;9.69;63.89;99764.75;4811800;29;19928;-78
2024/02/26 04:46:38;;;;;;;;;;;;;;;9.76;64.18;99761.50;4814667;29;19929;-79
2024/02/26 04:49:30;;;;;;;;;;;;;;;9.84;63.69;99763.34;4832347;29;20314;-78
2024/02/26 04:52:22;;;;;;;;;;;;;;;9.92;64.34;99757.03;4830517;29;19916;-79
2024/02/26 04:55:14;;;;;;;;;;;;;;;9.95;63.91;99747.44;4819687;29;19920;-79
2024/02/26 04:58:03;;;;;;;;;;;;;;;9.91;64.21;99760.88;4822256;29;20303;-78
2024/02/26 05:00:55;;;;;;;;;;;;;;;9.92;64.38;99746.19;4826964;29;19921;-79
2024/02/26 05:03:47;;;;;;;;;;;;;;;9.96;64.01;99746.28;4847009;29;19916;-79
2024/02/26 05:06:38;;;;;;;;;;;;;;;10.01;64.03;99744.16;4837502;29;19928;-79
2024/02/26 05:09:30;;;;;;;;;;;;;;;10.01;63.76;99741.44;4831806;29;19917;-78
2024/02/26 05:12:22;;;;;;;;;;;;;;;10.02;63.73;99726.75;4830258;29;19917;-78
2024/02/26 05:15:15;;;;;;;;;;;;;;;10.03;63.60;99741.13;4839445;29;19915;-79
2024/02/26 05:18:07;;;;;;;;;;;;;;;9.95;63.40;99740.09;4814940;29;19917;-78
2024/02/26 05:20:59;;;;;;;;;;;;;;;9.96;63.84;99738.94;4843522;29;20465;-79
2024/02/26 05:23:51;;;;;;;;;;;;;;;10.02;63.40;99745.75;4844128;29;19916;-78
2024/02/26 05:26:42;;;;;;;;;;;;;;;10.10;63.66;99753.03;4846235;29;19920;-79
2024/02/26 05:29:34;;;;;;;;;;;;;;;10.15;64.09;99765.63;4848880;29;19924;-78
2024/02/26 05:32:26;;;;;;;;;;;;;;;10.16;63.90;99762.56;4834213;29;19916;-77
2024/02/26 05:35:16;;;;;;;;;;;;;;;10.22;63.74;99776.75;4845731;29;19916;-78
2024/02/26 05:38:07;;;;;;;;;;;;;;;10.27;63.75;99781.97;4843714;29;20351;-80
2024/02/26 05:40:59;;;;;;;;;;;;;;;10.22;64.09;99774.81;4828368;29;19916;-79
2024/02/26 05:43:49;;;;;;;;;;;;;;;10.09;64.93;99783.25;4830524;29;19924;-79
2024/02/26 05:46:40;;;;;;;;;;;;;;;10.03;65.45;99793.53;4847930;29;19924;-79
2024/02/26 05:49:32;;;;;;;;;;;;;;;10.06;65.82;99795.56;4832714;29;19916;-80
2024/02/26 05:52:24;;;;;;;;;;;;;;;9.90;65.91;99805.47;4829527;29;19920;-80
2024/02/26 05:55:16;;;;;;;;;;;;;;;9.82;66.10;99817.19;4840493;29;19915;-79
2024/02/26 05:58:08;;;;;;;;;;;;;;;9.87;66.28;99811.56;4847954;29;19924;-79
2024/02/26 06:01:00;;;;;;;;;;;;;;;9.72;66.78;99812.97;4842760;29;20734;-79
2024/02/26 06:03:52;;;;;;;;;;;;;;;9.61;67.36;99814.47;4834365;29;19916;-79
2024/02/26 06:06:44;;;;;;;;;;;;;;;9.53;67.24;99830.81;4826196;29;19920;-79
2024/02/26 06:09:36;;;;;;;;;;;;;;;9.59;67.32;99824.88;4842198;29;19924;-78
2024/02/26 06:12:28;;;;;;;;;;;;;;;9.54;67.72;99816.13;4842825;29;20386;-79
2024/02/26 06:15:20;;;;;;;;;;;;;;;9.55;67.16;99820.44;4824936;29;20306;-79
2024/02/26 06:18:12;;;;;;;;;;;;;;;9.49;67.43;99817.13;4833596;29;19916;-79
2024/02/26 06:21:04;;;;;;;;;;;;;;;9.52;67.91;99821.09;4829688;29;19951;-79
2024/02/26 06:23:56;;;;;;;;;;;;;;;9.48;67.74;99818.25;4838951;29;19920;-79
2024/02/26 06:26:45;;;;;;;;;;;;;;;9.57;67.70;99826.31;4845595;29;19920;-78
2024/02/26 06:29:37;;;;;;;;;;;;;;;10.04;67.62;99829.63;4828058;29;20520;-79
2024/02/26 06:32:29;;;;;;;;;;;;;;;10.01;66.88;99828.34;4836771;29;20536;-79
2024/02/26 06:35:21;;;;;;;;;;;;;;;9.87;66.80;99828.66;4831715;29;19916;-79
2024/02/26 06:38:13;;;;;;;;;;;;;;;9.81;67.00;99829.97;4829331;29;20467;-79
2024/02/26 06:41:03;;;;;;;;;;;;;;;9.70;67.44;99836.91;4845164;29;19917;-79
2024/02/26 06:43:55;;;;;;;;;;;;;;;9.65;67.25;99842.53;4844608;29;19920;-78
2024/02/26 06:46:50;;;;;;;;;;;;;;;9.54;67.85;99840.56;4829136;29;19920;-79
2024/02/26 06:49:42;;;;;;;;;;;;;;;9.56;67.73;99841.81;4845716;29;20303;-79
2024/02/26 06:52:31;;;;;;;;;;;;;;;9.59;68.18;99845.78;4827740;29;20390;-80
2024/02/26 06:55:23;;;;;;;;;;;;;;;9.60;68.46;99850.88;4828493;29;19916;-79
2024/02/26 06:58:15;;;;;;;;;;;;;;;9.77;67.88;99858.91;4853053;29;19928;-80
2024/02/26 07:01:02;;;;;;;;;;;;;;;9.62;68.92;99858.69;4833067;29;19920;-80
2024/02/26 07:03:52;;;;;;;;;;;;;;;9.62;69.12;99864.13;4832349;29;20379;-80
2024/02/26 07:06:46;;;;;;;;;;;;;;;9.69;68.90;99858.97;4833227;29;19920;-80
2024/02/26 07:09:38;;;;;;;;;;;;;;;9.64;69.28;99859.97;4841001;29;19920;-79
2024/02/26 07:12:28;;;;;;;;;;;;;;;9.66;69.53;99868.56;4842922;29;19916;-80
2024/02/26 07:15:19;;;;;;;;;;;;;;;9.70;69.78;99868.72;4868402;29;19915;-80
2024/02/26 07:18:09;;;;;;;;;;;;;;;9.78;69.91;99873.28;4839343;29;19924;-81
2024/02/26 07:20:58;;;;;;;;;;;;;;;9.74;70.01;99875.06;4831084;29;19916;-79
2024/02/26 07:23:50;;;;;;;;;;;;;;;9.55;70.95;99878.22;4848433;29;19915;-80
2024/02/26 07:26:43;;;;;;;;;;;;;;;9.60;71.25;99878.00;4849376;29;20398;-80
2024/02/26 07:29:34;;;;;;;;;;;;;;;9.65;71.06;99872.41;4831310;29;19928;-80
2024/02/26 07:32:24;;;;;;;;;;;;;;;10.35;68.58;99872.69;4841659;29;19920;-80
2024/02/26 07:35:16;;;;;;;;;;;;;;;10.15;69.09;99872.34;4835531;29;19924;-80
2024/02/26 07:38:08;;;;;;;;;;;;;;;10.02;69.41;99870.69;4862046;29;20369;-80
2024/02/26 07:41:00;;;;;;;;;;;;;;;10.06;69.49;99863.47;4860229;29;19916;-79
2024/02/26 07:43:52;;;;;;;;;;;;;;;10.06;69.69;99874.34;4828079;29;19917;-80
2024/02/26 07:46:44;;;;;;;;;;;;;;;10.07;70.14;99873.22;4833429;29;19925;-80
2024/02/26 07:49:38;;;;;;;;;;;;;;;10.07;70.33;99865.06;4827006;29;19925;-80
2024/02/26 07:52:28;;;;;;;;;;;;;;;10.15;69.89;99866.94;4819407;29;19916;-80
2024/02/26 07:55:20;;;;;;;;;;;;;;;10.26;70.10;99875.47;4820171;29;19920;-80
2024/02/26 07:58:09;;;;;;;;;;;;;;;10.24;70.27;99875.81;4837006;29;19916;-80
2024/02/26 08:01:01;;;;;;;;;;;;;;;10.20;70.81;99877.63;4844119;29;19917;-81
2024/02/26 08:03:51;;;;;;;;;;;;;;;10.24;70.22;99875.03;4840822;29;19928;-80
2024/02/26 08:06:43;;;;;;;;;;;;;;;10.33;70.39;99877.66;4829160;29;19924;-80
2024/02/26 08:09:34;;;;;;;;;;;;;;;10.27;70.36;99871.63;4835132;29;19916;-80
2024/02/26 08:12:26;;;;;;;;;;;;;;;10.18;70.81;99879.06;4839684;29;19917;-80
2024/02/26 08:15:18;;;;;;;;;;;;;;;10.26;70.65;99870.03;4826853;29;19917;-80
2024/02/26 08:18:10;;;;;;;;;;;;;;;10.38;70.67;99866.56;4842333;29;19921;-79
2024/02/26 08:21:02;;;;;;;;;;;;;;;11.59;70.15;99866.72;4821365;29;19995;-80
2024/02/26 08:23:54;;;;;;;;;;;;;;;11.06;68.61;99865.03;4842716;29;19920;-79
2024/02/26 08:26:46;;;;;;;;;;;;;;;10.93;69.30;99861.50;4840842;29;19928;-79
2024/02/26 08:29:38;;;;;;;;;;;;;;;10.73;69.56;99873.25;4830937;29;19916;-80
2024/02/26 08:32:30;;;;;;;;;;;;;;;10.72;69.84;99879.81;4827342;29;19916;-80
2024/02/26 08:35:22;;;;;;;;;;;;;;;10.68;70.59;99876.97;4827502;29;19916;-79
2024/02/26 08:38:14;;;;;;;;;;;;;;;10.64;70.33;99872.56;4830726;29;19916;-79
2024/02/26 08:41:07;;;;;;;;;;;;;;;10.69;70.47;99866.91;4828456;29;19920;-80
2024/02/26 08:43:59;;;;;;;;;;;;;;;10.76;70.94;99872.59;4827345;29;20383;-80
2024/02/26 08:46:51;;;;;;;;;;;;;;;10.82;70.04;99870.47;4833425;29;19924;-79
2024/02/26 08:49:44;;;;;;;;;;;;;;;10.90;70.12;99864.91;4843889;29;19917;-80
2024/02/26 08:52:36;;;;;;;;;;;;;;;11.01;70.09;99860.63;4827614;29;19920;-80
2024/02/26 08:55:28;;;;;;;;;;;;;;;11.75;72.34;99859.47;4827284;29;19916;-80
2024/02/26 08:58:20;;;;;;;;;;;;;;;12.63;69.92;99855.72;4829641;29;20572;-79
2024/02/26 09:01:12;;;;;;;;;;;;;;;13.02;67.79;99853.19;4833506;29;19917;-79
2024/02/26 09:04:04;;;;;;;;;;;;;;;13.04;62.72;99853.63;4829504;29;20390;-79
2024/02/26 09:06:55;;;;;;;;;;;;;;;12.77;62.83;99847.91;4836627;29;19925;-80
2024/02/26 09:09:50;;;;;;;;;;;;;;;12.50;63.03;99845.22;4845502;29;19920;-80
2024/02/26 09:12:42;;;;;;;;;;;;;;;12.28;63.37;99844.66;4829287;29;19920;-78
2024/02/26 09:15:34;;;;;;;;;;;;;;;12.18;63.95;99844.34;4847450;29;20301;-79
2024/02/26 09:18:24;;;;;;;;;;;;;;;12.17;63.71;99848.22;4848733;29;20394;-79
2024/02/26 09:21:15;;;;;;;;;;;;;;;12.02;63.22;99846.22;4843251;29;19920;-80
2024/02/26 09:24:07;;;;;;;;;;;;;;;11.86;62.90;99844.22;4831278;29;19920;-79
2024/02/26 09:26:59;;;;;;;;;;;;;;;11.80;63.37;99844.81;4844407;29;19920;-78
2024/02/26 09:29:51;;;;;;;;;;;;;;;12.00;63.45;99836.47;4843515;29;19920;-79
2024/02/26 09:32:46;;;;;;;;;;;;;;;11.99;62.48;99842.25;4842621;29;19999;-79
2024/02/26 09:35:38;;;;;;;;;;;;;;;12.18;63.44;99847.88;4823994;29;19921;-78
2024/02/26 09:38:28;;;;;;;;;;;;;;;12.36;64.25;99851.09;4833304;29;20298;-79
2024/02/26 09:41:20;;;;;;;;;;;;;;;12.40;62.20;99850.03;4845281;29;19916;-78
2024/02/26 09:44:20;;;;;;;;;;;;;;;12.27;62.02;99845.78;4843046;29;19920;-80
2024/02/26 09:47:16;;;;;;;;;;;;;;;12.53;63.20;99853.50;4845407;29;19924;-79
2024/02/26 09:50:08;;;;;;;;;;;;;;;12.53;62.21;99855.44;4829902;29;19920;-78
2024/02/26 09:53:01;;;;;;;;;;;;;;;12.67;62.28;99855.81;4833052;29;19916;-78
2024/02/26 09:55:54;;;;;;;;;;;;;;;12.63;63.36;99860.38;4844465;29;19920;-78
2024/02/26 09:58:47;;;;;;;;;;;;;;;12.79;64.71;99856.53;4828671;29;19920;-78
2024/02/26 10:01:39;;;;;;;;;;;;;;;12.77;63.07;99847.09;4830209;29;19916;-79
2024/02/26 10:04:31;;;;;;;;;;;;;;;12.93;62.50;99844.38;4843762;29;20295;-78
2024/02/26 10:07:21;;;;;;;;;;;;;;;12.85;62.20;99846.94;4839900;29;19920;-77
2024/02/26 10:10:13;;;;;;;;;;;;;;;12.86;61.47;99845.00;4826324;29;19929;-78
2024/02/26 10:13:06;;;;;;;;;;;;;;;12.75;62.97;99843.94;4843222;29;19920;-78
2024/02/26 10:15:58;;;;;;;;;;;;;;;12.22;63.40;99848.75;4846028;29;19920;-78
2024/02/26 10:18:53;;;;;;;;;;;;;;;12.14;65.03;99851.66;4830334;29;19920;-77
2024/02/26 10:21:45;;;;;;;;;;;;;;;12.35;65.37;99849.50;4828233;29;19920;-77
2024/02/26 10:24:37;;;;;;;;;;;;;;;12.56;63.99;99849.28;4845045;29;19917;-77
2024/02/26 10:27:29;;;;;;;;;;;;;;;12.45;63.79;99848.97;4829661;29;19920;-78
2024/02/26 10:30:22;;;;;;;;;;;;;;;12.46;63.03;99842.41;4846224;29;19917;-79
2024/02/26 10:33:14;;;;;;;;;;;;;;;12.50;63.37;99846.00;4844216;29;19916;-78
2024/02/26 10:36:06;;;;;;;;;;;;;;;12.42;62.89;99849.69;4842519;29;20338;-78
2024/02/26 10:38:58;;;;;;;;;;;;;;;12.52;63.14;99851.13;4831826;29;19920;-77
2024/02/26 10:41:50;;;;;;;;;;;;;;;12.63;63.79;99850.25;4829785;29;19917;-77
2024/02/26 10:44:42;;;;;;;;;;;;;;;12.56;63.19;99852.78;4846723;29;20290;-77
2024/02/26 10:47:33;;;;;;;;;;;;;;;12.54;63.75;99854.31;4830624;29;19925;-78
2024/02/26 10:50:26;;;;;;;;;;;;;;;12.40;63.74;99852.75;4835729;29;19920;-78
2024/02/26 10:53:19;;;;;;;;;;;;;;;12.43;64.13;99856.75;4842436;29;20458;-78
2024/02/26 10:56:12;;;;;;;;;;;;;;;12.36;64.29;99859.25;4844111;29;19920;-78
2024/02/26 10:59:02;;;;;;;;;;;;;;;12.31;64.96;99854.06;4841620;29;19917;-78
2024/02/26 11:01:54;;;;;;;;;;;;;;;12.29;65.32;99862.56;4826269;29;19916;-78
2024/02/26 11:04:46;;;;;;;;;;;;;;;12.33;66.62;99859.97;4840240;29;19924;-77
2024/02/26 11:07:38;;;;;;;;;;;;;;;12.33;66.84;99855.31;4836077;29;19920;-79
2024/02/26 11:10:32;;;;;;;;;;;;;;;12.24;66.73;99854.66;4796069;29;19916;-78
2024/02/26 11:13:25;;;;;;;;;;;;;;;12.21;67.01;99855.34;4838150;29;19920;-77
2024/02/26 11:16:16;;;;;;;;;;;;;;;12.00;66.83;99844.63;4825562;29;19916;-77
2024/02/26 11:19:08;;;;;;;;;;;;;;;11.94;67.79;99851.47;4838301;29;19917;-77
2024/02/26 11:22:01;;;;;;;;;;;;;;;12.03;68.68;99845.09;4839824;29;19916;-77
2024/02/26 11:24:53;;;;;;;;;;;;;;;11.80;68.10;99848.31;4845302;29;19916;-77
2024/02/26 11:27:45;;;;;;;;;;;;;;;11.64;68.65;99841.97;4841948;29;19924;-77
2024/02/26 11:30:38;;;;;;;;;;;;;;;11.57;69.82;99834.41;4837915;29;19925;-78
2024/02/26 11:33:30;;;;;;;;;;;;;;;11.47;70.41;99837.59;4831438;29;19924;-77
2024/02/26 11:36:22;;;;;;;;;;;;;;;11.47;71.33;99836.81;4823337;29;19916;-78
2024/02/26 11:39:12;;;;;;;;;;;;;;;11.58;71.07;99829.72;4844003;29;19917;-77
2024/02/26 11:42:07;;;;;;;;;;;;;;;11.62;70.35;99836.09;4827936;29;19916;-77
2024/02/26 11:45:02;;;;;;;;;;;;;;;11.65;70.19;99832.66;4839330;29;19920;-78
2024/02/26 11:47:57;;;;;;;;;;;;;;;11.67;70.15;99824.16;4837534;29;19921;-77
2024/02/26 11:50:52;;;;;;;;;;;;;;;11.66;70.10;99819.84;4815796;29;20648;-78
2024/02/26 11:53:48;;;;;;;;;;;;;;;11.79;70.22;99822.22;4829861;29;19916;-78
2024/02/26 11:56:42;;;;;;;;;;;;;;;11.84;70.32;99815.75;4837114;29;19921;-77
2024/02/26 11:59:41;;;;;;;;;;;;;;;11.78;70.19;99817.94;4837293;29;19916;-78
2024/02/26 12:02:43;;;;;;;;;;;;;;;11.71;70.28;99814.97;4826700;29;20311;-78
2024/02/26 12:05:35;;;;;;;;;;;;;;;11.78;69.45;99817.94;4826851;29;20457;-77
2024/02/26 12:08:25;;;;;;;;;;;;;;;11.88;69.95;99820.19;4832477;29;19920;-78
2024/02/26 12:11:22;;;;;;;;;;;;;;;12.09;69.80;99813.75;4841489;29;19917;-78
2024/02/26 12:14:14;;;;;;;;;;;;;;;12.15;69.56;99815.06;4829082;29;19916;-78
2024/02/26 12:17:06;;;;;;;;;;;;;;;12.04;69.25;99811.25;4841999;29;19924;-79
2024/02/26 12:20:09;;;;;;;;;;;;;;;12.00;69.51;99817.38;4831403;29;19916;-78
2024/02/26 12:23:01;;;;;;;;;;;;;;;11.97;70.11;99818.09;4833440;29;19920;-78
2024/02/26 12:25:51;;;;;;;;;;;;;;;11.87;70.13;99813.13;4801942;29;19924;-78
2024/02/26 12:28:38;;;;;;;;;;;;;;;11.71;71.34;99811.44;4848950;29;19928;-78
2024/02/26 12:31:28;;;;;;;;;;;;;;;11.55;71.50;99812.16;4847419;29;20334;-78
2024/02/26 12:34:20;;;;;;;;;;;;;;;11.30;73.71;99815.25;4837305;29;20382;-78
2024/02/26 12:37:10;;;;;;;;;;;;;;;11.28;74.25;99812.06;4836167;29;19916;-78
2024/02/26 12:40:02;;;;;;;;;;;;;;;11.08;74.98;99813.78;4847992;29;19920;-78
2024/02/26 12:42:55;;;;;;;;;;;;;;;11.04;75.83;99813.69;4843778;29;19916;-78
2024/02/26 12:45:47;;;;;;;;;;;;;;;10.92;76.88;99812.91;4832066;29;19924;-78
2024/02/26 12:48:39;;;;;;;;;;;;;;;10.79;77.62;99812.09;4831752;29;20291;-78
2024/02/26 12:51:31;;;;;;;;;;;;;;;10.77;77.63;99819.78;4837790;29;19916;-77
2024/02/26 12:54:23;;;;;;;;;;;;;;;10.79;78.28;99803.94;4840868;29;19916;-79
2024/02/26 12:57:15;;;;;;;;;;;;;;;10.71;78.29;99816.50;4824725;29;19916;-78
2024/02/26 13:00:07;;;;;;;;;;;;;;;10.77;78.37;99808.91;4843703;29;19916;-78
2024/02/26 13:03:01;;;;;;;;;;;;;;;10.71;78.75;99807.56;4845882;29;19916;-78
2024/02/26 13:05:54;;;;;;;;;;;;;;;10.74;79.11;99798.72;4828013;29;19916;-78
2024/02/26 13:08:46;;;;;;;;;;;;;;;11.17;77.69;99797.38;4832796;29;19924;-77
2024/02/26 13:11:38;;;;;;;;;;;;;;;10.99;77.47;99786.72;4831545;29;19916;-77
2024/02/26 13:14:30;;;;;;;;;;;;;;;10.96;76.94;99784.69;4848883;29;19920;-77
2024/02/26 13:17:23;;;;;;;;;;;;;;;11.05;77.31;99787.28;4846112;29;19920;-77
2024/02/26 13:20:13;;;;;;;;;;;;;;;11.01;77.26;99776.28;4830703;29;19916;-78
2024/02/26 13:23:05;;;;;;;;;;;;;;;11.05;77.36;99785.34;4833772;29;19917;-77
2024/02/26 13:25:59;;;;;;;;;;;;;;;10.96;77.23;99783.88;4832083;29;19924;-77
2024/02/26 13:29:01;;;;;;;;;;;;;;;11.02;77.69;99777.84;4829501;29;19925;-77
2024/02/26 13:31:53;;;;;;;;;;;;;;;11.06;76.79;99777.97;4831279;29;19921;-78
2024/02/26 13:34:44;;;;;;;;;;;;;;;10.96;76.83;99776.53;4830411;29;19916;-78
2024/02/26 13:37:34;;;;;;;;;;;;;;;10.93;75.52;99769.03;4847006;29;19917;-78
2024/02/26 13:40:21;;;;;;;;;;;;;;;10.94;75.83;99775.25;4845385;29;20564;-77
2024/02/26 13:43:13;;;;;;;;;;;;;;;10.92;75.45;99780.25;4829980;29;19917;-77
2024/02/26 13:46:02;;;;;;;;;;;;;;;10.90;75.54;99783.31;4846851;29;19917;-77
2024/02/26 13:48:54;;;;;;;;;;;;;;;10.86;76.38;99785.13;4844583;29;19920;-77
2024/02/26 13:51:46;;;;;;;;;;;;;;;10.88;77.22;99784.78;4844522;29;19924;-77
2024/02/26 13:54:36;;;;;;;;;;;;;;;10.91;75.83;99782.19;4846080;29;20303;-77
2024/02/26 13:57:29;;;;;;;;;;;;;;;10.92;76.62;99789.19;4830184;29;19916;-77
2024/02/26 14:00:21;;;;;;;;;;;;;;;10.84;75.85;99781.94;4828529;29;19916;-78
2024/02/26 14:03:11;;;;;;;;;;;;;;;10.86;75.08;99782.41;4845320;29;20645;-77
2024/02/26 14:06:03;;;;;;;;;;;;;;;11.00;74.18;99780.13;4846118;29;19920;-77
2024/02/26 14:08:52;;;;;;;;;;;;;;;10.95;73.77;99782.28;4842048;29;19998;-77
2024/02/26 14:11:42;;;;;;;;;;;;;;;10.94;73.76;99781.50;4830847;29;19924;-78
2024/02/26 14:14:35;;;;;;;;;;;;;;;10.90;73.96;99764.28;4843015;29;19916;-78
2024/02/26 14:17:27;;;;;;;;;;;;;;;10.92;73.81;99767.44;4845524;29;19919;-77
2024/02/26 14:20:19;;;;;;;;;;;;;;;10.98;73.82;99771.50;4830564;29;19920;-76
2024/02/26 14:23:08;;;;;;;;;;;;;;;10.91;74.10;99762.34;4828720;29;19916;-77
2024/02/26 14:26:00;;;;;;;;;;;;;;;10.89;74.38;99762.69;4828459;29;19917;-76
2024/02/26 14:28:52;;;;;;;;;;;;;;;12.19;72.06;99764.19;4847001;29;20307;-77
2024/02/26 14:31:44;;;;;;;;;;;;;;;11.79;72.09;99758.78;4843945;29;19917;-77
2024/02/26 14:34:36;;;;;;;;;;;;;;;11.66;70.81;99757.22;4844641;29;19917;-77
2024/02/26 14:37:28;;;;;;;;;;;;;;;11.39;70.69;99764.19;4819708;29;19924;-77
2024/02/26 14:40:20;;;;;;;;;;;;;;;11.30;69.73;99760.81;4843095;29;19920;-77
2024/02/26 14:43:09;;;;;;;;;;;;;;;11.09;69.99;99766.41;4842320;29;19920;-78
2024/02/26 14:46:01;;;;;;;;;;;;;;;11.06;69.94;99765.19;4840564;29;19917;-77
2024/02/26 14:48:58;;;;;;;;;;;;;;;11.02;70.68;99755.31;4831865;29;19943;-77
2024/02/26 14:51:50;;;;;;;;;;;;;;;11.09;70.83;99759.03;4843033;29;19920;-77
2024/02/26 14:54:42;;;;;;;;;;;;;;;11.11;70.96;99748.63;4845569;29;19917;-77